Time;durP1;ratioP1;P1;durP2;ratioP2;P2;SDS_P1;SDS_P2;PMS_P1;PMS_P2;Temp;Humidity;BMP_temperature;BMP_pressure;BME280_temperature;BME280_humidity;BME280_pressure;Samples;Min_cycle;Max_cycle;Signal;HPM_P1;HPM_P2
2023/12/04 00:02:22;;;;;;;11.77;8.05;;;;;;;3.06;77.05;100102.13;4963750;28;20030;-95
2023/12/04 00:04:49;;;;;;;11.57;7.55;;;;;;;3.23;77.73;100109.50;4980818;28;20433;-95
2023/12/04 00:07:15;;;;;;;10.75;7.22;;;;;;;3.05;77.60;100093.31;4962878;28;20023;-95
2023/12/04 00:09:41;;;;;;;12.05;7.00;;;;;;;3.15;77.06;100109.69;4979192;28;20105;-96
2023/12/04 00:12:09;;;;;;;10.50;7.10;;;;;;;3.29;77.06;100120.38;4980510;28;20026;-96
2023/12/04 00:14:37;;;;;;;10.38;6.68;;;;;;;3.26;77.11;100118.94;4964799;28;20149;-95
2023/12/04 00:17:03;;;;;;;9.85;6.70;;;;;;;3.23;77.67;100137.97;4947243;28;20069;-96
2023/12/04 00:19:30;;;;;;;8.07;6.18;;;;;;;3.08;77.57;100118.69;4980154;28;20031;-95
2023/12/04 00:21:56;;;;;;;7.90;5.90;;;;;;;3.13;77.27;100122.38;4979197;28;20082;-96
2023/12/04 00:24:23;;;;;;;8.82;6.50;;;;;;;3.23;76.46;100122.00;4963117;28;20035;-95
2023/12/04 00:26:49;;;;;;;9.55;5.82;;;;;;;3.29;77.15;100139.00;4964032;28;20110;-96
2023/12/04 00:29:15;;;;;;;8.30;5.68;;;;;;;3.31;75.82;100129.78;4978058;28;20023;-95
2023/12/04 00:31:42;;;;;;;13.10;6.15;;;;;;;3.26;75.99;100123.44;4978918;28;20353;-96
2023/12/04 00:34:09;;;;;;;8.35;4.72;;;;;;;3.38;68.82;100124.47;4980758;28;20508;-96
2023/12/04 00:36:35;;;;;;;6.70;4.82;;;;;;;3.65;68.25;100146.63;4964300;28;20039;-94
2023/12/04 00:39:03;;;;;;;6.50;4.47;;;;;;;3.64;65.25;100140.47;4979652;28;20038;-95
2023/12/04 00:41:30;;;;;;;6.85;4.20;;;;;;;3.68;64.99;100138.25;4948125;28;20035;-96
2023/12/04 00:43:57;;;;;;;6.22;4.45;;;;;;;3.59;64.44;100144.78;4963852;28;20031;-95
2023/12/04 00:46:23;;;;;;;6.65;4.53;;;;;;;3.60;63.34;100133.13;4963783;28;20042;-96
2023/12/04 00:48:49;;;;;;;7.45;4.78;;;;;;;3.85;63.31;100168.75;4963065;28;20058;-95
2023/12/04 00:51:15;;;;;;;7.15;4.82;;;;;;;3.71;62.91;100139.66;4963482;28;20026;-95
2023/12/04 00:53:41;;;;;;;8.75;4.80;;;;;;;3.71;63.74;100155.66;4979707;28;20480;-96
2023/12/04 00:56:09;;;;;;;8.05;4.95;;;;;;;3.90;63.60;100173.50;4963913;28;20042;-96
2023/12/04 00:58:35;;;;;;;9.38;5.00;;;;;;;3.56;59.99;100140.69;4965932;28;20030;-95
2023/12/04 01:01:00;;;;;;;6.53;4.00;;;;;;;3.56;59.51;100158.50;4983972;28;20022;-96
2023/12/04 01:03:26;;;;;;;6.93;4.28;;;;;;;3.44;59.69;100156.47;4986738;28;20384;-96
2023/12/04 01:05:53;;;;;;;5.68;3.92;;;;;;;3.35;61.05;100148.84;4970712;28;20631;-95
2023/12/04 01:08:19;;;;;;;6.80;4.18;;;;;;;3.51;59.75;100172.44;4969408;28;20026;-95
2023/12/04 01:10:44;;;;;;;6.18;4.07;;;;;;;3.46;59.19;100164.22;4969885;28;20541;-95
2023/12/04 01:13:11;;;;;;;4.90;3.63;;;;;;;3.33;59.42;100151.72;4968116;28;20049;-96
2023/12/04 01:15:38;;;;;;;6.15;4.13;;;;;;;3.50;59.68;100181.44;4968609;28;20461;-94
2023/12/04 01:18:04;;;;;;;5.68;3.88;;;;;;;3.39;59.27;100168.72;4967564;28;20133;-96
2023/12/04 01:20:33;;;;;;;6.80;4.38;;;;;;;3.14;62.40;100165.78;5001338;28;20101;-96
2023/12/04 01:22:59;;;;;;;8.02;4.63;;;;;;;3.20;61.62;100168.47;4985005;28;20173;-96
2023/12/04 01:25:25;;;;;;;6.30;4.57;;;;;;;3.07;62.74;100173.72;4985855;28;20109;-96
2023/12/04 01:27:51;;;;;;;6.53;4.20;;;;;;;3.05;63.84;100183.78;4967900;28;20035;-96
2023/12/04 01:30:19;;;;;;;6.15;4.25;;;;;;;3.15;60.98;100178.06;4983945;28;20038;-96
2023/12/04 01:32:44;;;;;;;6.55;4.55;;;;;;;3.01;59.50;100174.56;4966691;28;20493;-96
2023/12/04 01:35:10;;;;;;;7.95;4.30;;;;;;;2.86;60.20;100166.69;4967993;28;20037;-96
2023/12/04 01:37:39;;;;;;;6.38;4.60;;;;;;;2.97;61.40;100190.09;4968184;28;20385;-96
2023/12/04 01:40:07;;;;;;;6.90;4.45;;;;;;;2.96;61.90;100177.78;4985466;28;20101;-95
2023/12/04 01:42:34;;;;;;;5.90;4.03;;;;;;;3.21;61.87;100195.88;4983267;28;20105;-96
2023/12/04 01:45:02;;;;;;;6.60;4.22;;;;;;;3.23;60.93;100178.69;4967673;28;20026;-96
2023/12/04 01:47:27;;;;;;;8.30;3.85;;;;;;;3.13;61.05;100167.59;4984256;28;20455;-95
2023/12/04 01:49:53;;;;;;;5.32;3.58;;;;;;;3.13;59.41;100198.72;4966831;28;20061;-96
2023/12/04 01:52:19;;;;;;;5.82;4.05;;;;;;;3.03;60.35;100173.34;4983304;28;20030;-96
2023/12/04 01:54:48;;;;;;;7.00;4.57;;;;;;;2.91;63.32;100176.75;4967550;28;20572;-96
2023/12/04 01:57:16;;;;;;;5.97;3.72;;;;;;;3.12;62.89;100192.59;4981255;28;20057;-96
2023/12/04 01:59:41;;;;;;;6.20;3.97;;;;;;;3.12;60.09;100173.16;4983247;28;20046;-96
2023/12/04 02:02:07;;;;;;;5.53;3.72;;;;;;;3.28;60.32;100195.91;4984540;28;20058;-96
2023/12/04 02:04:33;;;;;;;6.47;4.25;;;;;;;3.34;60.57;100192.44;4983683;28;20068;-96
2023/12/04 02:06:58;;;;;;;4.72;3.70;;;;;;;3.35;61.03;100210.88;4967897;28;20034;-96
2023/12/04 02:09:24;;;;;;;6.72;4.38;;;;;;;3.33;60.54;100193.47;4964212;28;20056;-93
2023/12/04 02:11:50;;;;;;;6.38;4.45;;;;;;;3.54;60.63;100213.81;4979943;28;20084;-94
2023/12/04 02:14:15;;;;;;;5.22;3.80;;;;;;;3.42;58.39;100202.91;4979801;28;20037;-93
2023/12/04 02:16:41;;;;;;;6.40;4.28;;;;;;;3.42;59.21;100190.44;4979460;28;20038;-93
2023/12/04 02:19:12;;;;;;;7.03;4.57;;;;;;;3.52;61.36;100208.66;4979169;28;20029;-92
2023/12/04 02:21:37;;;;;;;6.40;4.53;;;;;;;3.60;61.16;100216.47;4979662;28;20030;-93
2023/12/04 02:24:03;;;;;;;5.53;4.03;;;;;;;3.48;58.22;100209.28;4978957;28;20034;-92
2023/12/04 02:26:32;;;;;;;6.45;4.38;;;;;;;3.50;57.50;100229.34;4979347;28;20120;-93
2023/12/04 02:28:59;;;;;;;5.07;3.58;;;;;;;3.46;58.18;100227.28;4979300;28;20034;-93
2023/12/04 02:31:24;;;;;;;6.18;3.85;;;;;;;3.36;58.00;100225.84;4979499;28;20404;-93
2023/12/04 02:33:52;;;;;;;5.63;3.97;;;;;;;3.50;60.49;100240.00;4979711;28;20030;-94
2023/12/04 02:36:17;;;;;;;7.18;4.75;;;;;;;3.47;60.25;100223.63;4962815;28;20022;-95
2023/12/04 02:38:43;;;;;;;6.03;4.25;;;;;;;3.56;59.69;100225.06;4979122;28;20037;-91
2023/12/04 02:41:09;;;;;;;6.15;4.30;;;;;;;3.53;59.73;100217.47;4978971;28;20041;-94
2023/12/04 02:43:34;;;;;;;6.18;4.60;;;;;;;3.43;59.04;100205.38;4979466;28;20041;-94
2023/12/04 02:46:00;;;;;;;6.35;4.40;;;;;;;3.44;59.53;100201.72;4978521;28;20089;-94
2023/12/04 02:48:25;;;;;;;6.32;4.50;;;;;;;3.50;58.20;100204.56;4962632;28;20026;-93
2023/12/04 02:50:51;;;;;;;6.50;4.13;;;;;;;3.60;59.26;100223.66;4963096;28;20026;-93
2023/12/04 02:53:16;;;;;;;8.75;4.82;;;;;;;3.63;60.04;100223.22;4979315;28;20077;-93
2023/12/04 02:55:42;;;;;;;7.18;4.85;;;;;;;3.50;59.10;100215.22;4962782;28;20120;-92
2023/12/04 02:58:07;;;;;;;6.00;4.50;;;;;;;3.48;60.97;100225.25;4978507;28;20412;-93
2023/12/04 03:00:33;;;;;;;7.28;4.72;;;;;;;3.45;59.74;100234.47;4995116;28;20515;-94
2023/12/04 03:02:58;;;;;;;8.00;4.78;;;;;;;3.16;60.41;100214.31;4979284;28;20034;-94
2023/12/04 03:05:24;;;;;;;7.72;5.10;;;;;;;3.22;63.61;100230.28;4979321;28;20030;-94
2023/12/04 03:07:49;;;;;;;6.95;4.82;;;;;;;3.27;62.28;100228.88;4978751;28;20544;-94
2023/12/04 03:10:15;;;;;;;8.95;5.47;;;;;;;3.18;63.86;100242.34;4978629;28;20038;-93
2023/12/04 03:12:41;;;;;;;9.77;4.82;;;;;;;2.92;63.13;100226.28;4978510;28;20030;-94
2023/12/04 03:15:07;;;;;;;6.82;4.65;;;;;;;3.04;62.66;100245.97;4978435;28;20587;-93
2023/12/04 03:17:32;;;;;;;6.80;4.60;;;;;;;3.08;58.85;100249.06;4978256;28;20084;-94
2023/12/04 03:19:58;;;;;;;7.32;3.80;;;;;;;2.92;57.79;100221.75;4978408;28;20049;-93
2023/12/04 03:22:24;;;;;;;6.53;4.25;;;;;;;3.21;57.68;100249.13;4962171;28;20038;-93
2023/12/04 03:24:50;;;;;;;6.05;4.32;;;;;;;3.14;57.15;100248.28;4977973;28;20031;-93
2023/12/04 03:27:15;;;;;;;6.28;4.28;;;;;;;3.16;56.36;100241.72;4978784;28;20029;-92
2023/12/04 03:29:41;;;;;;;8.48;4.13;;;;;;;3.15;55.50;100236.59;4978768;28;20027;-92
2023/12/04 03:32:06;;;;;;;6.78;4.13;;;;;;;3.12;57.69;100245.00;4979540;28;20061;-93
2023/12/04 03:34:32;;;;;;;7.47;4.60;;;;;;;3.09;59.06;100246.19;4978601;28;20053;-92
2023/12/04 03:36:58;;;;;;;8.20;4.20;;;;;;;3.10;57.63;100239.06;4978577;28;20034;-93
2023/12/04 03:39:23;;;;;;;6.75;4.13;;;;;;;3.03;60.85;100266.44;4962285;28;20037;-92
2023/12/04 03:41:49;;;;;;;8.30;4.47;;;;;;;2.82;57.51;100246.06;4978479;28;20038;-92
2023/12/04 03:44:14;;;;;;;7.85;4.38;;;;;;;3.02;57.69;100269.28;4978161;28;20034;-93
2023/12/04 03:46:40;;;;;;;7.57;4.28;;;;;;;2.90;56.79;100234.44;4962366;28;20038;-92
2023/12/04 03:49:05;;;;;;;6.20;3.97;;;;;;;2.92;56.40;100253.69;4978230;28;20026;-92
2023/12/04 03:51:31;;;;;;;5.30;3.75;;;;;;;2.86;56.42;100251.81;4978576;28;20030;-92
2023/12/04 03:53:56;;;;;;;6.97;4.18;;;;;;;2.83;56.08;100246.88;4978159;28;20053;-92
2023/12/04 03:56:22;;;;;;;6.53;4.15;;;;;;;2.89;56.16;100279.88;4962767;28;20030;-92
2023/12/04 03:58:47;;;;;;;6.03;4.00;;;;;;;2.66;55.48;100248.19;4962543;28;20073;-91
2023/12/04 04:01:16;;;;;;;5.68;3.85;;;;;;;2.56;55.96;100251.22;4961989;28;20038;-93
2023/12/04 04:03:42;;;;;;;8.30;3.90;;;;;;;2.48;55.32;100252.19;4962292;28;20481;-94
2023/12/04 04:06:08;;;;;;;6.03;3.80;;;;;;;2.29;55.62;100243.06;4978169;28;20109;-93
2023/12/04 04:08:34;;;;;;;6.72;3.95;;;;;;;2.51;56.43;100274.91;4977689;28;20060;-92
2023/12/04 04:10:59;;;;;;;6.30;3.78;;;;;;;2.52;57.08;100269.38;4963132;28;20026;-94
2023/12/04 04:13:25;;;;;;;6.60;3.67;;;;;;;2.45;55.63;100276.50;4978164;28;20145;-95
2023/12/04 04:15:51;;;;;;;6.75;4.10;;;;;;;2.49;57.15;100274.25;4962477;28;20034;-93
2023/12/04 04:18:16;;;;;;;5.97;3.80;;;;;;;2.40;55.66;100270.94;4978277;28;20072;-94
2023/12/04 04:20:42;;;;;;;5.15;3.63;;;;;;;2.34;55.71;100266.38;4962508;28;20022;-94
2023/12/04 04:23:07;;;;;;;7.05;4.43;;;;;;;2.30;56.16;100284.53;4962290;28;20042;-95
2023/12/04 04:25:33;;;;;;;7.13;4.78;;;;;;;2.21;56.92;100275.88;4961975;28;20268;-93
2023/12/04 04:28:16;;;;;;;6.45;4.38;;;;;;;2.01;57.60;100257.13;4980172;28;20050;-96
2023/12/04 04:30:42;;;;;;;7.03;4.47;;;;;;;1.95;58.81;100273.00;5001571;28;20082;-96
2023/12/04 04:33:17;;;;;;;7.07;4.47;;;;;;;1.87;59.40;100258.03;4984241;28;20019;-95
2023/12/04 04:35:58;;;;;;;6.53;4.57;;;;;;;1.80;61.12;100260.59;4987403;28;20011;-95
2023/12/04 04:38:33;;;;;;;4.72;3.53;;;;;;;1.97;62.15;100297.53;5004975;28;20033;-96
2023/12/04 04:41:07;;;;;;;6.22;4.07;;;;;;;1.74;61.68;100279.97;4989263;28;20026;-96
2023/12/04 04:43:41;;;;;;;5.50;3.80;;;;;;;1.65;62.41;100272.28;5005228;28;20029;-96
2023/12/04 04:46:09;;;;;;;6.72;4.53;;;;;;;1.70;62.85;100269.88;5005374;28;20015;-96
2023/12/04 04:48:35;;;;;;;8.35;5.47;;;;;;;1.82;61.83;100289.63;5004219;28;20010;-96
2023/12/04 04:51:00;;;;;;;12.60;5.55;;;;;;;1.74;61.09;100295.88;4999892;28;20425;-95
2023/12/04 04:53:26;;;;;;;8.88;5.60;;;;;;;1.63;61.67;100276.97;4984589;28;20128;-96
2023/12/04 04:55:52;;;;;;;7.53;5.43;;;;;;;1.83;61.26;100299.25;4985274;28;20109;-96
2023/12/04 04:58:31;;;;;;;14.38;7.22;;;;;;;1.89;60.43;100287.03;4986803;28;20111;-96
2023/12/04 05:01:01;;;;;;;9.32;5.82;;;;;;;1.91;62.03;100298.28;4994398;28;20071;-95
2023/12/04 05:03:27;;;;;;;22.20;14.15;;;;;;;1.96;63.87;100314.47;4986139;28;20019;-96
2023/12/04 05:05:53;;;;;;;20.20;9.18;;;;;;;1.81;64.20;100304.72;4989411;28;20033;-96
2023/12/04 05:08:33;;;;;;;8.63;5.25;;;;;;;1.65;63.39;100297.00;4972807;28;20018;-96
2023/12/04 05:11:02;;;;;;;9.40;5.60;;;;;;;1.76;63.63;100299.16;4973517;28;20400;-96
2023/12/04 05:13:31;;;;;;;7.15;4.60;;;;;;;1.82;59.12;100292.28;4988388;28;20033;-96
2023/12/04 05:16:04;;;;;;;9.20;5.28;;;;;;;2.00;57.48;100307.78;4988664;28;20022;-96
2023/12/04 05:18:33;;;;;;;7.50;5.05;;;;;;;1.96;57.15;100294.06;4980382;28;20499;-95
2023/12/04 05:21:02;;;;;;;7.90;3.92;;;;;;;2.09;56.60;100314.59;4996181;28;20030;-95
2023/12/04 05:23:28;;;;;;;7.68;4.93;;;;;;;1.96;59.85;100311.84;4972956;28;20562;-94
2023/12/04 05:25:53;;;;;;;8.50;5.05;;;;;;;1.90;59.64;100312.59;4988429;28;20031;-93
2023/12/04 05:28:22;;;;;;;7.40;4.32;;;;;;;1.90;59.22;100309.94;4983955;28;20366;-96
2023/12/04 05:30:47;;;;;;;7.57;4.32;;;;;;;1.85;59.64;100309.66;4973695;28;20030;-95
2023/12/04 05:33:29;;;;;;;8.93;4.78;;;;;;;1.81;59.38;100311.88;4988331;28;20025;-95
2023/12/04 05:35:55;;;;;;;7.65;4.78;;;;;;;1.91;59.70;100324.84;4978961;28;20037;-96
2023/12/04 05:38:38;;;;;;;7.10;4.82;;;;;;;1.93;59.42;100333.44;4995936;28;20026;-94
2023/12/04 05:41:15;;;;;;;9.20;5.05;;;;;;;1.87;59.51;100328.88;4983717;28;20034;-96
2023/12/04 05:43:49;;;;;;;6.63;4.20;;;;;;;1.68;59.82;100307.25;4981811;28;20019;-96
2023/12/04 05:46:18;;;;;;;8.45;5.47;;;;;;;1.81;60.27;100341.91;4978567;28;20026;-95
2023/12/04 05:48:46;;;;;;;7.35;4.75;;;;;;;1.75;60.18;100317.94;4989496;28;20027;-95
2023/12/04 05:51:16;;;;;;;7.90;4.22;;;;;;;1.87;59.11;100337.69;4976372;28;20042;-95
2023/12/04 05:53:42;;;;;;;8.82;6.93;;;;;;;1.77;60.56;100329.19;4991527;28;20026;-95
2023/12/04 05:56:15;;;;;;;7.18;4.28;;;;;;;1.80;58.85;100356.19;4975074;28;20450;-93
2023/12/04 05:58:49;;;;;;;8.93;5.47;;;;;;;1.73;59.25;100335.88;4972780;28;20038;-95
2023/12/04 06:01:15;;;;;;;6.80;4.65;;;;;;;1.71;60.74;100340.56;4971587;28;20048;-93
2023/12/04 06:03:42;;;;;;;6.50;4.60;;;;;;;1.83;60.37;100352.34;4968678;28;20022;-94
2023/12/04 06:06:11;;;;;;;17.13;10.32;;;;;;;2.00;59.04;100371.53;4986241;28;20404;-94
2023/12/04 06:08:36;;;;;;;8.75;4.97;;;;;;;1.89;60.18;100353.41;4976507;28;20048;-92
2023/12/04 06:11:03;;;;;;;7.85;4.95;;;;;;;1.82;59.17;100364.78;4984569;28;20026;-95
2023/12/04 06:13:28;;;;;;;10.75;5.53;;;;;;;1.81;59.66;100359.69;4968583;28;20039;-94
2023/12/04 06:15:54;;;;;;;10.98;4.93;;;;;;;1.87;59.32;100374.88;4958999;28;20026;-93
2023/12/04 06:18:22;;;;;;;7.65;4.70;;;;;;;1.67;59.85;100347.25;4951105;28;20042;-96
2023/12/04 06:20:48;;;;;;;7.10;4.80;;;;;;;1.75;58.53;100371.03;4952441;28;20485;-93
2023/12/04 06:23:14;;;;;;;7.93;4.50;;;;;;;1.74;58.89;100362.25;4968436;28;20106;-91
2023/12/04 06:25:40;;;;;;;10.02;4.97;;;;;;;1.97;58.71;100377.19;4950466;28;20026;-92
2023/12/04 06:28:07;;;;;;;15.55;6.07;;;;;;;2.00;60.78;100385.63;4953745;28;20026;-94
2023/12/04 06:30:33;;;;;;;10.20;5.78;;;;;;;1.80;61.81;100366.78;4970395;28;20093;-94
2023/12/04 06:33:14;;;;;;;14.45;7.32;;;;;;;1.83;62.37;100376.25;4954787;28;20030;-94
2023/12/04 06:36:06;;;;;;;10.60;5.80;;;;;;;1.86;61.94;100391.78;4993128;28;20023;-96
2023/12/04 06:38:35;;;;;;;8.95;5.78;;;;;;;2.12;62.56;100406.41;4973149;28;20412;-95
2023/12/04 06:41:01;;;;;;;7.00;5.00;;;;;;;2.13;62.73;100402.72;4951402;28;20443;-96
2023/12/04 06:43:27;;;;;;;10.05;5.60;;;;;;;2.20;61.75;100392.97;4951177;28;20026;-94
2023/12/04 06:45:58;;;;;;;15.73;10.75;;;;;;;2.19;61.52;100409.94;4950246;28;20022;-93
2023/12/04 06:48:36;;;;;;;;;;;;;;;;;;;;;
2023/12/04 06:51:22;;;;;;;14.50;7.20;;;;;;;2.36;60.83;100405.22;4991774;28;20519;-96
2023/12/04 06:53:49;;;;;;;19.80;11.27;;;;;;;2.14;62.10;100401.72;4969080;28;20045;-95
2023/12/04 06:59:15;;;;;;;14.05;7.18;;;;;;;2.28;61.92;100398.19;5175099;22;20079;-96
2023/12/04 08:25:31;;;;;;;10.02;6.53;;;;;;;3.55;52.08;100436.44;5019352;28;20054;-92
2023/12/04 08:27:59;;;;;;;9.70;5.70;;;;;;;3.70;51.68;100429.16;4985548;28;20034;-93
2023/12/04 08:30:26;;;;;;;11.20;6.50;;;;;;;3.80;52.60;100434.94;4972515;28;20025;-94
2023/12/04 08:32:52;;;;;;;9.35;6.45;;;;;;;3.97;51.75;100442.59;5000673;28;20030;-93
2023/12/04 09:59:37;;;;;;;;;;;;;;;;;;;;;
2023/12/04 10:02:28;;;;;;;5.38;3.30;;;;;;;4.60;43.51;100352.50;5330885;22;20123;-95
2023/12/04 10:07:29;;;;;;;5.15;3.53;;;;;;;4.48;44.16;100355.97;5949098;22;20058;-96
2023/12/04 10:09:59;;;;;;;5.10;3.13;;;;;;;4.50;46.50;100362.75;4980495;28;20049;-96
2023/12/04 11:32:58;;;;;;;27.60;12.13;;;;;;;5.52;44.39;100322.34;5816532;22;21020;31
2023/12/04 11:43:50;;;;;;;5.25;3.05;;;;;;;5.62;42.43;100285.31;5287247;23;20057;-93
2023/12/04 11:47:11;;;;;;;4.85;3.22;;;;;;;5.73;42.33;100305.19;4998008;28;20037;-95
2023/12/04 11:49:37;;;;;;;3.25;2.47;;;;;;;5.58;42.40;100279.59;4968111;28;20107;-95
2023/12/04 11:52:10;;;;;;;3.75;2.53;;;;;;;5.50;41.65;100295.88;4950385;28;20039;-95
2023/12/04 11:55:09;;;;;;;4.32;2.72;;;;;;;5.40;41.28;100277.63;4967239;28;20026;-95
2023/12/04 11:58:13;;;;;;;8.45;4.00;;;;;;;5.66;42.47;100299.91;4936325;28;20162;-96
2023/12/04 12:00:38;;;;;;;5.22;2.50;;;;;;;5.60;41.46;100280.22;4964617;28;20145;-94
2023/12/04 12:03:23;;;;;;;8.00;3.08;;;;;;;5.65;41.46;100287.59;4948721;28;20027;-95
2023/12/04 12:05:57;;;;;;;3.55;2.50;;;;;;;5.44;41.54;100267.34;4960519;28;20128;-96
2023/12/04 12:11:52;;;;;;;4.53;2.85;;;;;;;5.18;43.53;100269.06;4972237;29;20049;-94
2023/12/04 12:18:04;;;;;;;5.82;3.10;;;;;;;5.05;43.33;100261.13;4888058;29;20096;-95
2023/12/04 12:20:32;;;;;;;4.47;2.85;;;;;;;4.89;44.22;100264.25;5184875;23;20046;-96
2023/12/04 12:25:42;;;;;;;3.75;2.75;;;;;;;5.06;43.53;100265.41;5169835;23;20060;-96
2023/12/04 12:28:08;;;;;;;9.13;6.75;;;;;;;5.14;44.37;100261.69;4974861;28;20037;-94
2023/12/04 12:30:47;;;;;;;38.17;19.40;;;;;;;5.37;44.32;100282.56;4978774;28;20029;-96
2023/12/04 12:33:16;;;;;;;6.97;3.72;;;;;;;5.39;43.40;100264.47;4963364;28;20144;-96
2023/12/04 12:35:45;;;;;;;4.93;3.20;;;;;;;5.50;43.71;100277.19;4980018;28;20022;-95
2023/12/04 12:49:21;;;;;;;6.88;3.45;;;;;;;5.12;45.38;100255.75;5053497;22;20074;-96
2023/12/04 12:51:47;;;;;;;15.50;10.35;;;;;;;5.22;43.70;100269.47;4957294;28;20070;-96
2023/12/04 12:54:13;;;;;;;5.30;3.53;;;;;;;5.13;44.76;100268.09;4950099;28;20027;-94
2023/12/04 12:56:39;;;;;;;4.80;3.20;;;;;;;5.03;44.82;100257.84;4954162;28;20037;-95
2023/12/04 12:59:10;;;;;;;3.72;2.85;;;;;;;5.32;44.46;100277.03;4954939;28;20023;-94
2023/12/04 13:01:37;;;;;;;5.30;3.20;;;;;;;5.04;45.28;100240.78;4957874;28;20027;-95
2023/12/04 13:04:10;;;;;;;4.90;3.38;;;;;;;5.11;44.67;100246.13;4956374;28;20068;-95
2023/12/04 13:07:07;;;;;;;8.15;5.00;;;;;;;5.17;45.27;100262.09;4978536;28;20034;-96
2023/12/04 13:44:57;;;;;;;;;;;;;;;;;;;;;
2023/12/04 13:47:25;;;;;;;8.02;5.03;;;;;;;5.30;44.70;100249.75;4973450;28;20094;-95
2023/12/04 13:49:55;;;;;;;7.50;3.90;;;;;;;5.49;44.33;100272.03;4953942;28;20018;-95
2023/12/04 13:52:23;;;;;;;5.05;3.53;;;;;;;5.29;45.41;100251.56;4955083;28;20031;-96
2023/12/04 13:54:58;;;;;;;5.53;3.15;;;;;;;5.23;45.03;100255.91;4957226;28;20034;-94
2023/12/04 14:00:57;;;;;;;10.30;6.18;;;;;;;5.24;45.71;100262.06;4923108;29;20062;-96
2023/12/04 14:03:51;;;;;;;6.18;4.30;;;;;;;5.11;46.09;100259.47;4968767;28;20132;-94
2023/12/04 14:09:21;;;;;;;9.10;5.72;;;;;;;5.14;46.70;100289.22;4952841;29;20034;-96
2023/12/04 14:11:59;;;;;;;8.57;4.75;;;;;;;5.02;45.62;100278.38;4905636;29;20043;-96
2023/12/04 14:14:57;;;;;;;8.05;4.90;;;;;;;5.03;46.17;100285.34;4939912;29;20032;-96
2023/12/04 14:17:24;;;;;;;8.15;4.50;;;;;;;4.93;46.52;100270.78;4903774;29;20052;-95
2023/12/04 14:20:33;;;;;;;;;;;;;;;;;;;;;
2023/12/04 14:23:02;;;;;;;8.30;4.35;;;;;;;4.97;45.97;100304.03;4896311;29;20053;-96
2023/12/04 14:25:44;;;;;;;11.75;5.68;;;;;;;4.83;46.38;100282.69;4893799;29;20033;-96
2023/12/04 14:29:11;;;;;;;14.60;6.35;;;;;;;4.66;46.83;100271.66;4895412;29;20063;-94
2023/12/04 14:32:13;;;;;;;11.40;6.65;;;;;;;4.69;46.62;100274.94;4828424;29;20042;-95
2023/12/04 14:35:50;;;;;;;12.88;6.65;;;;;;;4.90;47.56;100305.88;4866402;29;20028;-95
2023/12/04 14:40:53;;;;;;;14.45;5.85;;;;;;;4.70;48.04;100292.59;5497971;22;20358;-95
2023/12/04 15:55:04;;;;;;;22.83;11.10;;;;;;;3.85;54.78;100344.59;5986733;22;20079;-96
2023/12/04 15:57:33;;;;;;;20.88;11.27;;;;;;;3.90;55.61;100357.31;5013916;28;20042;-96
2023/12/04 16:00:49;;;;;;;;;;;;;;;;;;;;;
2023/12/04 16:03:48;;;;;;;16.98;9.40;;;;;;;3.62;55.69;100339.59;4939359;28;20036;-96
2023/12/04 16:10:06;;;;;;;;;;;;;;;;;;;;;
2023/12/04 16:19:39;;;;;;;28.13;16.33;;;;;;;3.27;57.85;100335.34;4911388;29;20036;-96
2023/12/04 16:27:28;;;;;;;22.88;12.18;;;;;;;3.16;58.63;100344.69;5381522;22;20362;-96
2023/12/04 16:38:22;;;;;;;21.35;14.50;;;;;;;3.08;59.67;100358.97;5602469;22;20416;-95
2023/12/04 17:24:47;;;;;;;31.25;17.52;;;;;;;2.38;62.15;100321.63;5020647;28;20057;-94
2023/12/04 17:27:13;;;;;;;38.13;18.85;;;;;;;2.51;62.43;100347.50;4974597;28;20030;-93
2023/12/04 17:29:39;;;;;;;41.55;22.45;;;;;;;2.38;63.63;100345.53;4973340;28;20025;-93
2023/12/04 17:32:04;;;;;;;38.70;20.80;;;;;;;2.16;63.65;100336.75;4974224;28;20506;-95
2023/12/04 17:34:32;;;;;;;29.30;17.77;;;;;;;2.14;63.76;100327.34;4973381;28;20014;-94
2023/12/04 17:36:58;;;;;;;32.00;17.35;;;;;;;2.13;63.77;100329.16;4972115;28;20026;-93
2023/12/04 17:39:24;;;;;;;24.60;14.38;;;;;;;2.10;63.56;100332.19;4972740;28;20125;-94
2023/12/04 17:41:49;;;;;;;21.02;11.93;;;;;;;1.94;63.49;100327.94;4972990;28;20078;-95
2023/12/04 17:44:16;;;;;;;21.60;11.40;;;;;;;1.82;64.03;100332.09;4971437;28;20040;-96
2023/12/04 17:59:52;;;;;;;18.15;10.90;;;;;;;1.30;65.57;100319.84;5004005;28;20050;-96
2023/12/04 18:02:36;;;;;;;22.40;11.95;;;;;;;1.24;65.90;100320.56;4947967;29;20042;-96
2023/12/04 18:05:02;;;;;;;19.58;11.20;;;;;;;1.24;65.42;100328.53;4896556;29;20050;-95
2023/12/04 18:07:34;;;;;;;20.33;10.68;;;;;;;1.17;65.41;100310.69;4911126;29;20036;-96
2023/12/04 18:10:02;;;;;;;19.45;10.98;;;;;;;1.27;65.78;100326.34;4911566;29;20035;-96
2023/12/04 18:12:29;;;;;;;22.15;12.18;;;;;;;1.20;65.88;100325.41;4911712;29;20032;-95
2023/12/04 18:15:03;;;;;;;32.05;15.25;;;;;;;1.24;66.74;100332.00;4915084;29;20015;-95
2023/12/04 18:17:33;;;;;;;34.35;15.48;;;;;;;1.15;66.42;100311.91;4913300;29;20062;-95
2023/12/04 18:19:59;;;;;;;17.15;11.32;;;;;;;1.20;66.93;100322.75;4927323;29;20536;-96
2023/12/04 18:22:27;;;;;;;19.60;8.98;;;;;;;1.17;67.04;100323.97;4893916;29;20040;-95
2023/12/04 18:24:55;;;;;;;16.48;9.02;;;;;;;1.11;66.60;100332.66;4924616;29;20039;-95
2023/12/04 18:27:22;;;;;;;16.27;9.75;;;;;;;1.01;66.38;100321.50;4925958;29;20078;-95
2023/12/04 18:29:48;;;;;;;19.20;11.07;;;;;;;0.94;67.62;100321.41;4909312;29;20118;-95
2023/12/04 18:32:15;;;;;;;18.50;9.85;;;;;;;0.92;67.69;100317.28;4912138;29;20027;-96
2023/12/04 18:34:44;;;;;;;11.82;7.68;;;;;;;0.91;66.43;100311.16;4952300;28;20412;-93
2023/12/04 18:37:44;;;;;;;20.20;8.40;;;;;;;1.02;66.45;100328.47;4954721;28;20044;-96
2023/12/04 18:40:12;;;;;;;20.48;8.68;;;;;;;1.16;67.33;100348.84;4984816;28;20038;-95
2023/12/04 18:42:40;;;;;;;16.75;8.85;;;;;;;0.96;67.16;100323.88;4953345;28;20038;-95
2023/12/04 18:45:14;;;;;;;17.77;10.25;;;;;;;0.95;67.91;100328.34;4985793;28;20054;-96
2023/12/04 18:47:41;;;;;;;20.88;13.57;;;;;;;1.17;67.96;100352.31;4954109;28;20062;-94
2023/12/04 18:50:13;;;;;;;29.08;14.40;;;;;;;1.05;68.16;100332.56;4968130;28;20030;-94
2023/12/04 18:52:40;;;;;;;26.63;13.45;;;;;;;1.12;67.92;100325.50;4978223;28;20030;-96
2023/12/04 18:55:07;;;;;;;22.83;13.18;;;;;;;1.19;68.54;100332.56;4967576;28;20131;-94
2023/12/04 18:57:34;;;;;;;20.27;12.43;;;;;;;1.16;68.26;100322.34;4953393;28;20026;-95
2023/12/04 18:59:59;;;;;;;20.35;12.15;;;;;;;1.16;67.96;100310.88;4967763;28;20043;-95
2023/12/04 19:02:25;;;;;;;22.75;11.52;;;;;;;1.21;66.36;100337.69;4954955;28;20026;-96
2023/12/04 19:04:52;;;;;;;18.38;11.15;;;;;;;1.22;66.11;100323.41;4953449;28;20045;-96
2023/12/04 19:07:21;;;;;;;22.55;13.38;;;;;;;1.24;67.26;100325.88;4928184;29;20130;-96
2023/12/04 19:09:50;;;;;;;29.95;14.63;;;;;;;1.34;67.83;100332.56;4910754;29;20561;-96
2023/12/04 19:12:17;;;;;;;23.13;12.40;;;;;;;1.49;66.62;100337.03;4911486;29;20039;-96
2023/12/04 19:14:46;;;;;;;28.13;13.05;;;;;;;1.76;66.65;100359.41;4929381;29;20066;-96
2023/12/04 19:17:12;;;;;;;23.50;12.27;;;;;;;1.72;65.58;100334.22;4929654;29;20513;-95
2023/12/04 19:19:41;;;;;;;22.42;11.55;;;;;;;1.85;63.53;100328.25;4911347;29;20039;-96
2023/12/04 19:22:10;;;;;;;23.80;15.95;;;;;;;2.08;62.84;100347.50;4912619;29;20048;-96
2023/12/04 19:24:36;;;;;;;32.00;18.92;;;;;;;2.08;63.19;100328.09;4930545;29;20071;-96
2023/12/04 19:27:04;;;;;;;19.60;13.05;;;;;;;2.15;63.40;100340.41;4910251;29;20043;-96
2023/12/04 19:29:39;;;;;;;20.02;12.48;;;;;;;2.16;63.79;100335.94;4912523;29;20031;-96
2023/12/04 19:32:06;;;;;;;18.55;10.95;;;;;;;2.14;63.54;100325.50;4910669;29;20052;-96
2023/12/04 19:34:32;;;;;;;18.90;11.32;;;;;;;2.19;62.66;100324.94;4910545;29;20046;-95
2023/12/04 19:36:59;;;;;;;19.02;10.82;;;;;;;2.18;64.14;100348.03;4910477;29;20047;-96
2023/12/04 19:39:25;;;;;;;22.35;12.82;;;;;;;2.07;63.97;100324.59;4951381;28;20046;-96
2023/12/04 19:41:53;;;;;;;14.77;10.40;;;;;;;2.06;65.79;100341.56;4951950;28;20074;-96
2023/12/04 19:44:23;;;;;;;21.77;11.95;;;;;;;1.87;65.02;100310.28;4951763;28;20061;-96
2023/12/04 19:47:28;;;;;;;;;;;;;;;;;;;;;
2023/12/04 19:49:54;;;;;;;23.77;10.75;;;;;;;1.99;65.22;100316.75;4942863;29;20123;-96
2023/12/04 19:52:23;;;;;;;24.02;10.32;;;;;;;1.97;65.11;100301.03;4894290;29;20111;-96